SHT9K EGPH-ESSA
Flight info
| Callsign | SHT9K |
|---|---|
| Flight time | 1h 52m |
| Altitude | 37000 |
| Route | GRICE P600 ASNUD DCT ADN DCT KLONN DCT VATEX DCT ELTOK |
| Aircraft | A320/M-SDE3FGHIRWY/LB1 |
Departure
| Time | 2026-04-26 16:16 |
|---|---|
| Airport | Edinburgh Airport (EGPH) |
Arrival
| Time | 2026-04-26 18:09 |
|---|---|
| Airport | Stockholm-Arlanda Airport (ESSA) |
| Time | Latitude | Longitude | Altitude | Speed | Heading |
|---|---|---|---|---|---|
| 2026-04-26 15:48 | 55.94921 | -3.36430 | 116 ft | 0 kts | 148° |
| 2026-04-26 15:49 | 55.94744 | -3.38009 | 113 ft | 0 kts | 58° |
| 2026-04-26 15:49 | 55.94919 | -3.36428 | 116 ft | 0 kts | 148° |
| 2026-04-26 15:50 | 55.94921 | -3.36430 | 116 ft | 0 kts | 148° |
| 2026-04-26 16:05 | 55.94934 | -3.36444 | 116 ft | 4 kts | 149° |
| 2026-04-26 16:05 | 55.94956 | -3.36469 | 116 ft | 4 kts | 159° |
| 2026-04-26 16:06 | 55.94980 | -3.36474 | 116 ft | 4 kts | 206° |
| 2026-04-26 16:06 | 55.94996 | -3.36449 | 114 ft | 1 kts | 238° |
| 2026-04-26 16:06 | 55.94996 | -3.36448 | 114 ft | 0 kts | 238° |
| 2026-04-26 16:08 | 55.94995 | -3.36452 | 114 ft | 2 kts | 238° |
| 2026-04-26 16:08 | 55.94971 | -3.36522 | 116 ft | 9 kts | 238° |
| 2026-04-26 16:09 | 55.94936 | -3.36624 | 114 ft | 11 kts | 238° |
| 2026-04-26 16:09 | 55.94895 | -3.36749 | 115 ft | 13 kts | 249° |
| 2026-04-26 16:09 | 55.94927 | -3.36887 | 114 ft | 13 kts | 263° |
| 2026-04-26 16:09 | 55.94877 | -3.37039 | 115 ft | 15 kts | 239° |
| 2026-04-26 16:10 | 55.94818 | -3.37213 | 115 ft | 18 kts | 239° |
| 2026-04-26 16:10 | 55.94751 | -3.37411 | 114 ft | 20 kts | 239° |
| 2026-04-26 16:10 | 55.94676 | -3.37633 | 115 ft | 22 kts | 239° |
| 2026-04-26 16:10 | 55.94593 | -3.37878 | 114 ft | 24 kts | 238° |
| 2026-04-26 16:11 | 55.94502 | -3.38145 | 114 ft | 23 kts | 238° |
| 2026-04-26 16:11 | 55.94417 | -3.38399 | 113 ft | 25 kts | 239° |
| 2026-04-26 16:11 | 55.94322 | -3.38673 | 115 ft | 27 kts | 238° |
| 2026-04-26 16:11 | 55.94299 | -3.38879 | 113 ft | 14 kts | 314° |
| 2026-04-26 16:12 | 55.94322 | -3.38906 | 112 ft | 0 kts | 330° |
| 2026-04-26 16:12 | 55.94370 | -3.38956 | 114 ft | 9 kts | 329° |
| 2026-04-26 16:13 | 55.94428 | -3.38937 | 113 ft | 11 kts | 55° |
| 2026-04-26 16:13 | 55.94434 | -3.38918 | 114 ft | 0 kts | 60° |
| 2026-04-26 16:15 | 55.94463 | -3.38834 | 114 ft | 34 kts | 58° |
| 2026-04-26 16:15 | 55.94713 | -3.38096 | 113 ft | 101 kts | 59° |
| 2026-04-26 16:16 | 55.95741 | -3.35074 | 591 ft | 156 kts | 58° |
| 2026-04-26 16:16 | 55.96420 | -3.33563 | 1239 ft | 157 kts | 43° |
| 2026-04-26 16:16 | 55.97255 | -3.32208 | 1622 ft | 172 kts | 41° |
| 2026-04-26 16:16 | 55.98206 | -3.30700 | 1903 ft | 194 kts | 41° |
| 2026-04-26 16:17 | 55.99276 | -3.29007 | 2158 ft | 217 kts | 40° |
| 2026-04-26 16:17 | 56.00641 | -3.27614 | 2436 ft | 239 kts | 11° |
| 2026-04-26 16:17 | 56.02361 | -3.27641 | 2877 ft | 258 kts | 348° |
| 2026-04-26 16:17 | 56.04171 | -3.28101 | 3679 ft | 265 kts | 350° |
| 2026-04-26 16:18 | 56.06019 | -3.28510 | 4591 ft | 269 kts | 351° |
| 2026-04-26 16:18 | 56.09787 | -3.29299 | 6440 ft | 276 kts | 351° |
| 2026-04-26 16:19 | 56.13614 | -3.28838 | 8051 ft | 290 kts | 24° |
| 2026-04-26 16:19 | 56.15222 | -3.26608 | 8814 ft | 298 kts | 50° |
| 2026-04-26 16:19 | 56.17337 | -3.21560 | 10120 ft | 307 kts | 53° |
| 2026-04-26 16:20 | 56.19061 | -3.17358 | 10684 ft | 329 kts | 53° |
| 2026-04-26 16:20 | 56.21954 | -3.10312 | 11283 ft | 365 kts | 53° |
| 2026-04-26 16:20 | 56.23471 | -3.06624 | 11914 ft | 369 kts | 53° |
| 2026-04-26 16:21 | 56.25006 | -3.02894 | 12586 ft | 373 kts | 53° |
| 2026-04-26 16:21 | 56.26557 | -2.99123 | 13252 ft | 377 kts | 52° |
| 2026-04-26 16:21 | 56.28122 | -2.95317 | 13933 ft | 380 kts | 52° |
| 2026-04-26 16:21 | 56.29707 | -2.91461 | 14526 ft | 385 kts | 52° |
| 2026-04-26 16:22 | 56.31305 | -2.87563 | 15105 ft | 388 kts | 52° |
| 2026-04-26 16:22 | 56.32917 | -2.83621 | 15682 ft | 392 kts | 52° |
| 2026-04-26 16:22 | 56.34536 | -2.79652 | 16233 ft | 395 kts | 52° |
| 2026-04-26 16:22 | 56.36149 | -2.75696 | 16775 ft | 398 kts | 52° |
| 2026-04-26 16:23 | 56.37798 | -2.71645 | 17334 ft | 402 kts | 52° |
| 2026-04-26 16:23 | 56.39458 | -2.67555 | 17886 ft | 406 kts | 52° |
| 2026-04-26 16:23 | 56.41131 | -2.63421 | 18451 ft | 409 kts | 52° |
| 2026-04-26 16:23 | 56.42820 | -2.59244 | 18951 ft | 413 kts | 52° |
| 2026-04-26 16:24 | 56.44522 | -2.55033 | 19455 ft | 416 kts | 52° |
| 2026-04-26 16:24 | 56.46234 | -2.50792 | 19966 ft | 419 kts | 52° |
| 2026-04-26 16:24 | 56.47957 | -2.46510 | 20478 ft | 422 kts | 52° |
| 2026-04-26 16:24 | 56.49692 | -2.42193 | 20973 ft | 425 kts | 52° |
| 2026-04-26 16:25 | 56.51436 | -2.37842 | 21458 ft | 428 kts | 52° |
| 2026-04-26 16:25 | 56.53166 | -2.33520 | 21924 ft | 431 kts | 52° |
| 2026-04-26 16:25 | 56.54929 | -2.29103 | 22381 ft | 433 kts | 52° |
| 2026-04-26 16:25 | 56.56697 | -2.24661 | 22851 ft | 436 kts | 52° |
| 2026-04-26 16:26 | 56.58479 | -2.20183 | 23281 ft | 440 kts | 52° |
| 2026-04-26 16:26 | 56.59690 | -2.17135 | 23578 ft | 442 kts | 52° |
| 2026-04-26 16:26 | 56.62083 | -2.11106 | 24104 ft | 446 kts | 52° |
| 2026-04-26 16:26 | 56.63901 | -2.06520 | 24474 ft | 449 kts | 52° |
| 2026-04-26 16:27 | 56.65724 | -2.01901 | 24834 ft | 451 kts | 52° |
| 2026-04-26 16:27 | 56.67556 | -1.97243 | 25186 ft | 454 kts | 52° |
| 2026-04-26 16:27 | 56.69398 | -1.92558 | 25534 ft | 457 kts | 52° |
| 2026-04-26 16:27 | 56.71256 | -1.87832 | 25875 ft | 460 kts | 52° |
| 2026-04-26 16:28 | 56.73121 | -1.83083 | 26217 ft | 462 kts | 52° |
| 2026-04-26 16:28 | 56.74995 | -1.78293 | 26555 ft | 465 kts | 52° |
| 2026-04-26 16:28 | 56.76851 | -1.73535 | 26889 ft | 468 kts | 52° |
| 2026-04-26 16:28 | 56.78738 | -1.68683 | 27252 ft | 470 kts | 52° |
| 2026-04-26 16:29 | 56.80633 | -1.63806 | 27604 ft | 473 kts | 52° |
| 2026-04-26 16:29 | 56.82540 | -1.58898 | 27937 ft | 476 kts | 52° |
| 2026-04-26 16:29 | 56.84460 | -1.53950 | 28301 ft | 479 kts | 52° |
| 2026-04-26 16:29 | 56.86392 | -1.48962 | 28607 ft | 482 kts | 52° |
| 2026-04-26 16:30 | 56.88330 | -1.43945 | 28918 ft | 485 kts | 52° |
| 2026-04-26 16:30 | 56.90280 | -1.38879 | 29240 ft | 488 kts | 52° |
| 2026-04-26 16:30 | 56.92232 | -1.33795 | 29670 ft | 488 kts | 52° |
| 2026-04-26 16:30 | 56.94179 | -1.28709 | 30126 ft | 487 kts | 52° |
| 2026-04-26 16:31 | 56.96123 | -1.23620 | 30545 ft | 487 kts | 52° |
| 2026-04-26 16:31 | 56.98063 | -1.18527 | 30935 ft | 487 kts | 52° |
| 2026-04-26 16:31 | 56.99979 | -1.13487 | 31353 ft | 486 kts | 52° |
| 2026-04-26 16:31 | 57.01909 | -1.08412 | 31810 ft | 484 kts | 52° |
| 2026-04-26 16:32 | 57.03834 | -1.03351 | 32253 ft | 483 kts | 52° |
| 2026-04-26 16:32 | 57.05132 | -0.99934 | 32549 ft | 482 kts | 52° |
| 2026-04-26 16:32 | 57.07668 | -0.93241 | 33123 ft | 481 kts | 52° |
| 2026-04-26 16:32 | 57.09574 | -0.88178 | 33551 ft | 481 kts | 52° |
| 2026-04-26 16:33 | 57.11469 | -0.83125 | 34020 ft | 480 kts | 52° |
| 2026-04-26 16:33 | 57.13359 | -0.78076 | 34473 ft | 477 kts | 52° |
| 2026-04-26 16:33 | 57.15240 | -0.73052 | 34856 ft | 476 kts | 52° |
| 2026-04-26 16:33 | 57.17119 | -0.68035 | 35208 ft | 475 kts | 52° |
| 2026-04-26 16:34 | 57.18990 | -0.63026 | 35546 ft | 474 kts | 53° |
| 2026-04-26 16:34 | 57.20857 | -0.58009 | 35878 ft | 473 kts | 53° |
| 2026-04-26 16:34 | 57.22719 | -0.53002 | 36204 ft | 473 kts | 53° |
| 2026-04-26 16:34 | 57.24575 | -0.48003 | 36509 ft | 472 kts | 53° |
| 2026-04-26 16:35 | 57.26425 | -0.43009 | 36813 ft | 471 kts | 53° |
| 2026-04-26 16:35 | 57.28271 | -0.38013 | 37119 ft | 471 kts | 53° |
| 2026-04-26 16:35 | 57.30115 | -0.33006 | 37282 ft | 472 kts | 53° |
| 2026-04-26 16:35 | 57.31969 | -0.27963 | 37301 ft | 476 kts | 53° |
| 2026-04-26 16:36 | 57.35702 | -0.17789 | 37291 ft | 478 kts | 53° |
| 2026-04-26 16:36 | 57.39431 | -0.07564 | 37295 ft | 479 kts | 54° |
| 2026-04-26 16:37 | 57.43149 | 0.02671 | 37310 ft | 478 kts | 54° |
| 2026-04-26 16:37 | 57.46227 | 0.11181 | 37315 ft | 477 kts | 54° |
| 2026-04-26 16:38 | 57.50527 | 0.23108 | 37315 ft | 477 kts | 54° |
| 2026-04-26 16:38 | 57.54217 | 0.33413 | 37326 ft | 478 kts | 54° |
| 2026-04-26 16:39 | 57.57898 | 0.43743 | 37322 ft | 478 kts | 54° |
| 2026-04-26 16:39 | 57.61577 | 0.54063 | 37320 ft | 478 kts | 54° |
| 2026-04-26 16:40 | 57.65252 | 0.64401 | 37346 ft | 478 kts | 54° |
| 2026-04-26 16:40 | 57.68906 | 0.74779 | 37346 ft | 478 kts | 54° |
| 2026-04-26 16:41 | 57.72525 | 0.85097 | 37332 ft | 477 kts | 54° |
| 2026-04-26 16:41 | 57.76159 | 0.95495 | 37331 ft | 477 kts | 54° |
| 2026-04-26 16:42 | 57.79786 | 1.05914 | 37334 ft | 477 kts | 54° |
| 2026-04-26 16:42 | 57.83414 | 1.16354 | 37337 ft | 477 kts | 54° |
| 2026-04-26 16:43 | 57.87025 | 1.26814 | 37337 ft | 477 kts | 54° |
| 2026-04-26 16:43 | 57.90621 | 1.37293 | 37343 ft | 477 kts | 54° |
| 2026-04-26 16:44 | 57.94202 | 1.47799 | 37359 ft | 477 kts | 54° |
| 2026-04-26 16:44 | 57.97758 | 1.58250 | 37350 ft | 477 kts | 54° |
| 2026-04-26 16:45 | 58.01337 | 1.68775 | 37347 ft | 477 kts | 54° |
| 2026-04-26 16:45 | 58.04905 | 1.79349 | 37354 ft | 477 kts | 55° |
| 2026-04-26 16:46 | 58.08465 | 1.89945 | 37358 ft | 477 kts | 54° |
| 2026-04-26 16:46 | 58.12018 | 2.00545 | 37356 ft | 477 kts | 55° |
| 2026-04-26 16:47 | 58.15533 | 2.11113 | 37359 ft | 477 kts | 55° |
| 2026-04-26 16:47 | 58.19057 | 2.21746 | 37380 ft | 476 kts | 55° |
| 2026-04-26 16:48 | 58.22574 | 2.32391 | 37366 ft | 476 kts | 55° |
| 2026-04-26 16:48 | 58.26080 | 2.43059 | 37358 ft | 476 kts | 55° |
| 2026-04-26 16:49 | 58.29572 | 2.53753 | 37363 ft | 476 kts | 55° |
| 2026-04-26 16:49 | 58.33033 | 2.64381 | 37362 ft | 475 kts | 55° |
| 2026-04-26 16:50 | 58.36497 | 2.75094 | 37364 ft | 475 kts | 55° |
| 2026-04-26 16:50 | 58.39084 | 2.84367 | 37361 ft | 478 kts | 66° |
| 2026-04-26 16:51 | 58.40952 | 2.96586 | 37360 ft | 480 kts | 73° |
| 2026-04-26 16:51 | 58.42672 | 3.08908 | 37361 ft | 480 kts | 73° |
| 2026-04-26 16:52 | 58.44095 | 3.19158 | 37390 ft | 480 kts | 73° |
| 2026-04-26 16:52 | 58.46077 | 3.33571 | 37373 ft | 480 kts | 73° |
| 2026-04-26 16:53 | 58.47754 | 3.45899 | 37367 ft | 480 kts | 73° |
| 2026-04-26 16:53 | 58.49411 | 3.58157 | 37360 ft | 480 kts | 73° |
| 2026-04-26 16:54 | 58.51076 | 3.70516 | 37359 ft | 480 kts | 73° |
| 2026-04-26 16:54 | 58.52727 | 3.82883 | 37366 ft | 479 kts | 73° |
| 2026-04-26 16:55 | 58.54361 | 3.95240 | 37366 ft | 478 kts | 73° |
| 2026-04-26 16:55 | 58.55980 | 4.07601 | 37362 ft | 478 kts | 73° |
| 2026-04-26 16:56 | 58.58382 | 4.26151 | 37354 ft | 478 kts | 73° |
| 2026-04-26 16:57 | 58.59960 | 4.38438 | 37355 ft | 478 kts | 73° |
| 2026-04-26 16:57 | 58.62314 | 4.56996 | 37356 ft | 477 kts | 73° |
| 2026-04-26 16:58 | 58.63608 | 4.67296 | 37355 ft | 477 kts | 73° |
| 2026-04-26 16:59 | 58.66175 | 4.87971 | 37348 ft | 477 kts | 74° |
| 2026-04-26 17:00 | 58.69203 | 5.12691 | 37354 ft | 476 kts | 73° |
| 2026-04-26 17:00 | 58.71448 | 5.31312 | 37342 ft | 476 kts | 74° |
| 2026-04-26 17:01 | 58.72931 | 5.43729 | 37341 ft | 476 kts | 74° |
| 2026-04-26 17:01 | 58.74407 | 5.56165 | 37329 ft | 476 kts | 74° |
| 2026-04-26 17:02 | 58.75858 | 5.68523 | 37321 ft | 476 kts | 74° |
| 2026-04-26 17:02 | 58.77304 | 5.80966 | 37319 ft | 476 kts | 74° |
| 2026-04-26 17:03 | 58.78728 | 5.93413 | 37317 ft | 476 kts | 75° |
| 2026-04-26 17:03 | 58.80142 | 6.05872 | 37315 ft | 476 kts | 75° |
| 2026-04-26 17:04 | 58.81548 | 6.18361 | 37313 ft | 475 kts | 75° |
| 2026-04-26 17:04 | 58.82952 | 6.30850 | 37315 ft | 475 kts | 75° |
| 2026-04-26 17:05 | 58.84330 | 6.43260 | 37298 ft | 476 kts | 75° |
| 2026-04-26 17:05 | 58.85701 | 6.55789 | 37285 ft | 477 kts | 75° |
| 2026-04-26 17:06 | 58.87066 | 6.68361 | 37293 ft | 478 kts | 75° |
| 2026-04-26 17:06 | 58.88426 | 6.80952 | 37286 ft | 478 kts | 75° |
| 2026-04-26 17:07 | 58.89769 | 6.93549 | 37274 ft | 478 kts | 75° |
| 2026-04-26 17:07 | 58.91083 | 7.06071 | 37288 ft | 478 kts | 75° |
| 2026-04-26 17:08 | 58.92400 | 7.18662 | 37282 ft | 477 kts | 75° |
| 2026-04-26 17:08 | 58.93703 | 7.31247 | 37279 ft | 476 kts | 76° |
| 2026-04-26 17:09 | 58.94777 | 7.41714 | 37272 ft | 476 kts | 76° |
| 2026-04-26 17:09 | 58.96266 | 7.56413 | 37275 ft | 476 kts | 76° |
| 2026-04-26 17:10 | 58.97530 | 7.69009 | 37270 ft | 476 kts | 76° |
| 2026-04-26 17:10 | 58.98773 | 7.81521 | 37259 ft | 475 kts | 76° |
| 2026-04-26 17:11 | 59.00007 | 7.94116 | 37254 ft | 475 kts | 76° |
| 2026-04-26 17:11 | 59.01233 | 8.06714 | 37240 ft | 475 kts | 76° |
| 2026-04-26 17:12 | 59.03051 | 8.25639 | 37233 ft | 475 kts | 76° |
| 2026-04-26 17:13 | 59.04827 | 8.44576 | 37255 ft | 474 kts | 76° |
| 2026-04-26 17:14 | 59.06570 | 8.63460 | 37241 ft | 473 kts | 76° |
| 2026-04-26 17:14 | 59.08305 | 8.82341 | 37229 ft | 473 kts | 76° |
| 2026-04-26 17:15 | 59.10000 | 9.01253 | 37252 ft | 473 kts | 76° |
| 2026-04-26 17:16 | 59.11107 | 9.13893 | 37235 ft | 474 kts | 76° |
| 2026-04-26 17:16 | 59.12212 | 9.26548 | 37225 ft | 475 kts | 76° |
| 2026-04-26 17:17 | 59.13311 | 9.39234 | 37225 ft | 475 kts | 77° |
| 2026-04-26 17:17 | 59.14391 | 9.51837 | 37227 ft | 475 kts | 77° |
| 2026-04-26 17:18 | 59.15461 | 9.64574 | 37243 ft | 476 kts | 77° |
| 2026-04-26 17:18 | 59.16523 | 9.77299 | 37249 ft | 476 kts | 77° |
| 2026-04-26 17:19 | 59.18084 | 9.96399 | 37257 ft | 475 kts | 77° |
| 2026-04-26 17:19 | 59.19111 | 10.09139 | 37262 ft | 475 kts | 77° |
| 2026-04-26 17:20 | 59.19957 | 10.19730 | 37261 ft | 476 kts | 77° |
| 2026-04-26 17:20 | 59.21132 | 10.34645 | 37327 ft | 475 kts | 77° |
| 2026-04-26 17:21 | 59.22127 | 10.47398 | 37346 ft | 475 kts | 77° |
| 2026-04-26 17:21 | 59.23105 | 10.60138 | 37370 ft | 474 kts | 77° |
| 2026-04-26 17:22 | 59.24059 | 10.72808 | 37375 ft | 474 kts | 77° |
| 2026-04-26 17:22 | 59.25000 | 10.85552 | 37373 ft | 474 kts | 77° |
| 2026-04-26 17:23 | 59.25935 | 10.98293 | 37372 ft | 474 kts | 77° |
| 2026-04-26 17:23 | 59.26860 | 11.11054 | 37353 ft | 474 kts | 77° |
| 2026-04-26 17:24 | 59.27767 | 11.23811 | 37321 ft | 474 kts | 78° |
| 2026-04-26 17:24 | 59.28669 | 11.36563 | 37243 ft | 473 kts | 78° |
| 2026-04-26 17:25 | 59.29555 | 11.49316 | 37240 ft | 473 kts | 78° |
| 2026-04-26 17:25 | 59.30418 | 11.61997 | 37245 ft | 473 kts | 78° |
| 2026-04-26 17:26 | 59.31274 | 11.74761 | 37246 ft | 473 kts | 78° |
| 2026-04-26 17:26 | 59.32394 | 11.87399 | 37236 ft | 469 kts | 72° |
| 2026-04-26 17:27 | 59.33884 | 11.99854 | 37255 ft | 469 kts | 71° |
| 2026-04-26 17:27 | 59.35355 | 12.12322 | 37242 ft | 469 kts | 72° |
| 2026-04-26 17:28 | 59.36801 | 12.24775 | 37229 ft | 468 kts | 72° |
| 2026-04-26 17:28 | 59.38228 | 12.37144 | 37222 ft | 468 kts | 72° |
| 2026-04-26 17:29 | 59.39425 | 12.47582 | 37219 ft | 468 kts | 72° |
| 2026-04-26 17:29 | 59.41063 | 12.62086 | 37215 ft | 468 kts | 72° |
| 2026-04-26 17:30 | 59.42461 | 12.74583 | 37214 ft | 468 kts | 72° |
| 2026-04-26 17:30 | 59.43855 | 12.87091 | 37210 ft | 468 kts | 72° |
| 2026-04-26 17:31 | 59.45227 | 12.99528 | 37210 ft | 468 kts | 72° |
| 2026-04-26 17:31 | 59.46594 | 13.12052 | 37224 ft | 468 kts | 72° |
| 2026-04-26 17:32 | 59.47946 | 13.24588 | 37219 ft | 468 kts | 72° |
| 2026-04-26 17:32 | 59.49283 | 13.37112 | 37240 ft | 467 kts | 72° |
| 2026-04-26 17:33 | 59.51174 | 13.49170 | 37228 ft | 457 kts | 61° |
| 2026-04-26 17:34 | 59.54836 | 13.66460 | 37217 ft | 454 kts | 61° |
| 2026-04-26 17:34 | 59.57268 | 13.77953 | 37214 ft | 454 kts | 61° |
| 2026-04-26 17:35 | 59.59645 | 13.89386 | 37192 ft | 452 kts | 61° |
| 2026-04-26 17:35 | 59.62007 | 14.00917 | 36603 ft | 454 kts | 61° |
| 2026-04-26 17:35 | 59.63192 | 14.06716 | 35946 ft | 456 kts | 61° |
| 2026-04-26 17:36 | 59.64359 | 14.12472 | 35738 ft | 446 kts | 61° |
| 2026-04-26 17:36 | 59.65499 | 14.18149 | 35430 ft | 440 kts | 61° |
| 2026-04-26 17:36 | 59.66620 | 14.23766 | 35051 ft | 436 kts | 61° |
| 2026-04-26 17:36 | 59.67855 | 14.29172 | 34671 ft | 428 kts | 57° |
| 2026-04-26 17:37 | 59.69150 | 14.34447 | 34298 ft | 425 kts | 56° |
| 2026-04-26 17:37 | 59.70431 | 14.39693 | 33865 ft | 421 kts | 56° |
| 2026-04-26 17:37 | 59.71692 | 14.44898 | 33425 ft | 418 kts | 56° |
| 2026-04-26 17:38 | 59.74169 | 14.55220 | 32520 ft | 412 kts | 56° |
| 2026-04-26 17:38 | 59.75375 | 14.60353 | 32137 ft | 409 kts | 56° |
| 2026-04-26 17:38 | 59.76523 | 14.65413 | 31721 ft | 407 kts | 56° |
| 2026-04-26 17:38 | 59.77670 | 14.70530 | 31305 ft | 404 kts | 57° |
| 2026-04-26 17:39 | 59.78804 | 14.75623 | 30910 ft | 402 kts | 57° |
| 2026-04-26 17:39 | 59.79924 | 14.80686 | 30514 ft | 399 kts | 57° |
| 2026-04-26 17:39 | 59.81031 | 14.85718 | 30097 ft | 397 kts | 57° |
| 2026-04-26 17:39 | 59.82128 | 14.90730 | 29649 ft | 394 kts | 57° |
| 2026-04-26 17:40 | 59.83215 | 14.95709 | 29228 ft | 391 kts | 57° |
| 2026-04-26 17:40 | 59.83580 | 14.97384 | 29087 ft | 390 kts | 57° |
| 2026-04-26 17:40 | 59.85362 | 15.05572 | 28407 ft | 386 kts | 57° |
| 2026-04-26 17:40 | 59.86423 | 15.10460 | 28002 ft | 383 kts | 57° |
| 2026-04-26 17:41 | 59.87478 | 15.15327 | 27591 ft | 381 kts | 57° |
| 2026-04-26 17:41 | 59.88520 | 15.20156 | 27221 ft | 378 kts | 57° |
| 2026-04-26 17:41 | 59.89545 | 15.24957 | 26840 ft | 375 kts | 57° |
| 2026-04-26 17:41 | 59.90547 | 15.29667 | 26448 ft | 373 kts | 57° |
| 2026-04-26 17:42 | 59.91555 | 15.34403 | 26055 ft | 370 kts | 57° |
| 2026-04-26 17:42 | 59.92550 | 15.39109 | 25720 ft | 368 kts | 57° |
| 2026-04-26 17:42 | 59.93532 | 15.43801 | 25328 ft | 365 kts | 57° |
| 2026-04-26 17:42 | 59.94506 | 15.48463 | 24941 ft | 363 kts | 57° |
| 2026-04-26 17:43 | 59.95473 | 15.53096 | 24543 ft | 361 kts | 57° |
| 2026-04-26 17:43 | 59.96434 | 15.57697 | 24169 ft | 358 kts | 57° |
| 2026-04-26 17:43 | 59.97391 | 15.62281 | 23796 ft | 356 kts | 57° |
| 2026-04-26 17:43 | 59.98340 | 15.66828 | 23369 ft | 354 kts | 57° |
| 2026-04-26 17:44 | 59.99282 | 15.71351 | 22939 ft | 351 kts | 57° |
| 2026-04-26 17:44 | 60.00219 | 15.75842 | 22530 ft | 349 kts | 57° |
| 2026-04-26 17:44 | 60.01150 | 15.80307 | 22111 ft | 346 kts | 57° |
| 2026-04-26 17:44 | 60.01762 | 15.83243 | 21845 ft | 345 kts | 57° |
| 2026-04-26 17:45 | 60.02681 | 15.87650 | 21440 ft | 342 kts | 57° |
| 2026-04-26 17:45 | 60.03595 | 15.92030 | 21043 ft | 339 kts | 57° |
| 2026-04-26 17:45 | 60.04649 | 15.97861 | 20780 ft | 340 kts | 70° |
| 2026-04-26 17:45 | 60.04773 | 16.01087 | 20597 ft | 350 kts | 85° |
| 2026-04-26 17:46 | 60.04208 | 16.05895 | 20277 ft | 363 kts | 107° |
| 2026-04-26 17:46 | 60.03166 | 16.10506 | 19908 ft | 364 kts | 108° |
| 2026-04-26 17:46 | 60.02117 | 16.15030 | 19604 ft | 362 kts | 109° |
| 2026-04-26 17:46 | 60.01053 | 16.19596 | 19293 ft | 361 kts | 109° |
| 2026-04-26 17:47 | 59.99996 | 16.24133 | 18983 ft | 359 kts | 108° |
| 2026-04-26 17:47 | 59.99302 | 16.27121 | 18783 ft | 357 kts | 108° |
| 2026-04-26 17:47 | 59.97912 | 16.33125 | 18374 ft | 354 kts | 108° |
| 2026-04-26 17:47 | 59.96882 | 16.37579 | 18012 ft | 352 kts | 108° |
| 2026-04-26 17:48 | 59.95855 | 16.42005 | 17690 ft | 350 kts | 108° |
| 2026-04-26 17:48 | 59.94832 | 16.46396 | 17360 ft | 348 kts | 108° |
| 2026-04-26 17:48 | 59.93813 | 16.50761 | 17034 ft | 346 kts | 108° |
| 2026-04-26 17:48 | 59.92802 | 16.55096 | 16724 ft | 343 kts | 108° |
| 2026-04-26 17:49 | 59.91800 | 16.59393 | 16407 ft | 341 kts | 108° |
| 2026-04-26 17:49 | 59.90801 | 16.63661 | 16100 ft | 339 kts | 109° |
| 2026-04-26 17:49 | 59.89818 | 16.67855 | 15789 ft | 337 kts | 109° |
| 2026-04-26 17:49 | 59.88826 | 16.72070 | 15524 ft | 335 kts | 108° |
| 2026-04-26 17:50 | 59.87839 | 16.76259 | 15207 ft | 333 kts | 108° |
| 2026-04-26 17:50 | 59.86852 | 16.80436 | 14902 ft | 331 kts | 108° |
| 2026-04-26 17:50 | 59.85869 | 16.84580 | 14612 ft | 329 kts | 109° |
| 2026-04-26 17:50 | 59.84894 | 16.88679 | 14322 ft | 327 kts | 109° |
| 2026-04-26 17:51 | 59.83923 | 16.92757 | 14038 ft | 325 kts | 109° |
| 2026-04-26 17:51 | 59.82954 | 16.96822 | 13734 ft | 323 kts | 109° |
| 2026-04-26 17:51 | 59.82089 | 17.00904 | 13383 ft | 317 kts | 102° |
| 2026-04-26 17:51 | 59.81355 | 17.05017 | 13087 ft | 314 kts | 103° |
| 2026-04-26 17:52 | 59.80615 | 17.09091 | 12779 ft | 312 kts | 103° |
| 2026-04-26 17:52 | 59.79768 | 17.13029 | 12252 ft | 312 kts | 116° |
| 2026-04-26 17:52 | 59.78455 | 17.16453 | 11730 ft | 313 kts | 133° |
| 2026-04-26 17:52 | 59.76742 | 17.19074 | 11230 ft | 309 kts | 151° |
| 2026-04-26 17:53 | 59.74790 | 17.20739 | 11083 ft | 306 kts | 161° |
| 2026-04-26 17:53 | 59.72785 | 17.22174 | 11104 ft | 307 kts | 161° |
| 2026-04-26 17:53 | 59.70769 | 17.23630 | 11108 ft | 308 kts | 161° |
| 2026-04-26 17:54 | 59.66883 | 17.26948 | 11091 ft | 301 kts | 140° |
| 2026-04-26 17:54 | 59.65581 | 17.30049 | 11095 ft | 290 kts | 111° |
| 2026-04-26 17:54 | 59.64951 | 17.33788 | 11095 ft | 286 kts | 99° |
| 2026-04-26 17:54 | 59.64484 | 17.37609 | 11091 ft | 285 kts | 98° |
| 2026-04-26 17:55 | 59.64036 | 17.41427 | 11095 ft | 285 kts | 97° |
| 2026-04-26 17:55 | 59.63591 | 17.45238 | 11094 ft | 285 kts | 97° |
| 2026-04-26 17:55 | 59.63147 | 17.49053 | 11089 ft | 285 kts | 97° |
| 2026-04-26 17:55 | 59.62666 | 17.52853 | 11088 ft | 288 kts | 106° |
| 2026-04-26 17:56 | 59.61587 | 17.56205 | 11089 ft | 294 kts | 135° |
| 2026-04-26 17:56 | 59.57847 | 17.58813 | 11092 ft | 291 kts | 185° |
| 2026-04-26 17:57 | 59.53804 | 17.58390 | 11092 ft | 290 kts | 187° |
| 2026-04-26 17:57 | 59.51802 | 17.58139 | 10744 ft | 286 kts | 187° |
| 2026-04-26 17:57 | 59.49827 | 17.57886 | 10277 ft | 283 kts | 187° |
| 2026-04-26 17:57 | 59.47881 | 17.57633 | 9827 ft | 278 kts | 187° |
| 2026-04-26 17:58 | 59.42367 | 17.59984 | 8251 ft | 275 kts | 158° |
| 2026-04-26 17:59 | 59.38869 | 17.62925 | 7257 ft | 271 kts | 158° |
| 2026-04-26 17:59 | 59.37161 | 17.64448 | 6751 ft | 269 kts | 148° |
| 2026-04-26 17:59 | 59.35865 | 17.66991 | 6275 ft | 262 kts | 116° |
| 2026-04-26 17:59 | 59.35257 | 17.70286 | 5741 ft | 256 kts | 99° |
| 2026-04-26 18:00 | 59.34861 | 17.73679 | 5218 ft | 254 kts | 98° |
| 2026-04-26 18:00 | 59.34490 | 17.77059 | 5019 ft | 253 kts | 97° |
| 2026-04-26 18:00 | 59.34119 | 17.80441 | 5013 ft | 254 kts | 98° |
| 2026-04-26 18:00 | 59.33759 | 17.83712 | 5030 ft | 242 kts | 98° |
| 2026-04-26 18:01 | 59.33409 | 17.86860 | 5038 ft | 234 kts | 98° |
| 2026-04-26 18:01 | 59.33063 | 17.89966 | 5034 ft | 234 kts | 98° |
| 2026-04-26 18:01 | 59.32777 | 17.93088 | 5034 ft | 230 kts | 84° |
| 2026-04-26 18:01 | 59.33176 | 17.95982 | 5038 ft | 217 kts | 50° |
| 2026-04-26 18:02 | 59.34262 | 17.97825 | 4847 ft | 202 kts | 17° |
| 2026-04-26 18:02 | 59.35168 | 17.98168 | 4526 ft | 195 kts | 353° |
| 2026-04-26 18:02 | 59.36823 | 17.96905 | 4043 ft | 194 kts | 329° |
| 2026-04-26 18:02 | 59.37982 | 17.95499 | 4041 ft | 197 kts | 328° |
| 2026-04-26 18:03 | 59.39139 | 17.94054 | 4038 ft | 198 kts | 328° |
| 2026-04-26 18:03 | 59.40305 | 17.92594 | 4035 ft | 198 kts | 328° |
| 2026-04-26 18:03 | 59.41468 | 17.91134 | 4039 ft | 198 kts | 328° |
| 2026-04-26 18:03 | 59.42657 | 17.89651 | 4039 ft | 205 kts | 329° |
| 2026-04-26 18:04 | 59.43981 | 17.88706 | 3934 ft | 203 kts | 351° |
| 2026-04-26 18:04 | 59.45399 | 17.88849 | 3719 ft | 210 kts | 7° |
| 2026-04-26 18:04 | 59.46850 | 17.89372 | 3431 ft | 215 kts | 7° |
| 2026-04-26 18:05 | 59.49694 | 17.90405 | 2846 ft | 195 kts | 7° |
| 2026-04-26 18:05 | 59.50984 | 17.90870 | 2585 ft | 183 kts | 7° |
| 2026-04-26 18:05 | 59.52194 | 17.91306 | 2360 ft | 169 kts | 6° |
| 2026-04-26 18:05 | 59.53297 | 17.91704 | 2139 ft | 153 kts | 6° |
| 2026-04-26 18:06 | 59.54268 | 17.92056 | 1931 ft | 135 kts | 7° |
| 2026-04-26 18:06 | 59.55157 | 17.92475 | 1700 ft | 128 kts | 7° |
| 2026-04-26 18:06 | 59.56032 | 17.92730 | 1519 ft | 126 kts | 5° |
| 2026-04-26 18:06 | 59.56889 | 17.92979 | 1390 ft | 126 kts | 6° |
| 2026-04-26 18:07 | 59.57750 | 17.93288 | 1135 ft | 124 kts | 6° |
| 2026-04-26 18:07 | 59.58597 | 17.93622 | 1020 ft | 125 kts | 7° |
| 2026-04-26 18:07 | 59.59456 | 17.93942 | 882 ft | 125 kts | 5° |
| 2026-04-26 18:07 | 59.60023 | 17.94148 | 779 ft | 124 kts | 5° |
| 2026-04-26 18:08 | 59.61165 | 17.94553 | 562 ft | 126 kts | 5° |
| 2026-04-26 18:08 | 59.62027 | 17.94867 | 329 ft | 126 kts | 4° |
| 2026-04-26 18:08 | 59.62880 | 17.95173 | 172 ft | 120 kts | 3° |
| 2026-04-26 18:08 | 59.63524 | 17.95391 | 145 ft | 66 kts | 11° |
| 2026-04-26 18:09 | 59.63949 | 17.95547 | 144 ft | 45 kts | 9° |
| 2026-04-26 18:09 | 59.64188 | 17.95488 | 139 ft | 36 kts | 341° |
| 2026-04-26 18:09 | 59.64280 | 17.95423 | 138 ft | 0 kts | 340° |
| 2026-04-26 18:10 | 59.64283 | 17.95420 | 138 ft | 3 kts | 340° |
| 2026-04-26 18:10 | 59.64329 | 17.95386 | 138 ft | 11 kts | 339° |